sensor_id;sensor_type;location;lat;lon;timestamp;temperature;humidity
27540;DHT22;15906;52.046;4.724;2024-02-26T00:00:10;5.70;99.90
27540;DHT22;15906;52.046;4.724;2024-02-26T00:02:37;5.70;99.90
27540;DHT22;15906;52.046;4.724;2024-02-26T00:05:07;5.70;99.90
27540;DHT22;15906;52.046;4.724;2024-02-26T00:07:32;5.70;99.90
27540;DHT22;15906;52.046;4.724;2024-02-26T00:09:58;5.70;99.90
27540;DHT22;15906;52.046;4.724;2024-02-26T00:12:24;5.70;99.90
27540;DHT22;15906;52.046;4.724;2024-02-26T00:14:49;5.60;99.90
27540;DHT22;15906;52.046;4.724;2024-02-26T00:17:15;5.70;99.90
27540;DHT22;15906;52.046;4.724;2024-02-26T00:19:41;5.70;99.90
27540;DHT22;15906;52.046;4.724;2024-02-26T00:22:07;5.70;99.90
27540;DHT22;15906;52.046;4.724;2024-02-26T00:24:32;5.70;99.90
27540;DHT22;15906;52.046;4.724;2024-02-26T00:26:59;5.60;99.90
27540;DHT22;15906;52.046;4.724;2024-02-26T00:29:25;5.70;99.90
27540;DHT22;15906;52.046;4.724;2024-02-26T00:31:51;5.70;99.90
27540;DHT22;15906;52.046;4.724;2024-02-26T00:34:16;5.70;99.90
27540;DHT22;15906;52.046;4.724;2024-02-26T00:36:42;5.80;99.90
27540;DHT22;15906;52.046;4.724;2024-02-26T00:39:08;5.70;99.90
27540;DHT22;15906;52.046;4.724;2024-02-26T00:41:37;5.70;99.90
27540;DHT22;15906;52.046;4.724;2024-02-26T00:44:03;5.70;99.90
27540;DHT22;15906;52.046;4.724;2024-02-26T00:46:28;5.70;99.90
27540;DHT22;15906;52.046;4.724;2024-02-26T00:48:54;5.70;99.90
27540;DHT22;15906;52.046;4.724;2024-02-26T00:51:19;5.70;99.90
27540;DHT22;15906;52.046;4.724;2024-02-26T00:53:45;5.70;99.90
27540;DHT22;15906;52.046;4.724;2024-02-26T00:56:10;5.70;99.90
27540;DHT22;15906;52.046;4.724;2024-02-26T00:58:36;5.70;99.90
27540;DHT22;15906;52.046;4.724;2024-02-26T01:01:02;5.70;99.90
27540;DHT22;15906;52.046;4.724;2024-02-26T01:03:28;5.80;99.90
27540;DHT22;15906;52.046;4.724;2024-02-26T01:05:54;5.80;99.90
27540;DHT22;15906;52.046;4.724;2024-02-26T01:08:19;5.80;99.90
27540;DHT22;15906;52.046;4.724;2024-02-26T01:10:45;5.80;99.90
27540;DHT22;15906;52.046;4.724;2024-02-26T01:13:11;5.80;99.90
27540;DHT22;15906;52.046;4.724;2024-02-26T01:15:36;5.80;99.90
27540;DHT22;15906;52.046;4.724;2024-02-26T01:18:02;5.80;99.90
27540;DHT22;15906;52.046;4.724;2024-02-26T01:20:28;5.80;99.90
27540;DHT22;15906;52.046;4.724;2024-02-26T01:22:53;5.80;99.90
27540;DHT22;15906;52.046;4.724;2024-02-26T01:25:19;5.80;99.90
27540;DHT22;15906;52.046;4.724;2024-02-26T01:27:45;5.80;99.90
27540;DHT22;15906;52.046;4.724;2024-02-26T01:30:11;5.80;99.90
27540;DHT22;15906;52.046;4.724;2024-02-26T01:32:36;5.80;99.90
27540;DHT22;15906;52.046;4.724;2024-02-26T01:35:03;5.80;99.90
27540;DHT22;15906;52.046;4.724;2024-02-26T01:37:29;5.80;99.90
27540;DHT22;15906;52.046;4.724;2024-02-26T01:39:57;5.80;99.90
27540;DHT22;15906;52.046;4.724;2024-02-26T01:42:23;5.80;99.90
27540;DHT22;15906;52.046;4.724;2024-02-26T01:44:48;5.90;99.90
27540;DHT22;15906;52.046;4.724;2024-02-26T01:47:14;5.90;99.90
27540;DHT22;15906;52.046;4.724;2024-02-26T01:49:40;5.90;99.90
27540;DHT22;15906;52.046;4.724;2024-02-26T01:52:07;5.90;99.90
27540;DHT22;15906;52.046;4.724;2024-02-26T01:54:37;5.90;99.90
27540;DHT22;15906;52.046;4.724;2024-02-26T01:57:04;5.90;99.90
27540;DHT22;15906;52.046;4.724;2024-02-26T01:59:30;5.90;99.90
27540;DHT22;15906;52.046;4.724;2024-02-26T02:01:59;6.00;99.90
27540;DHT22;15906;52.046;4.724;2024-02-26T02:04:27;5.90;99.90
27540;DHT22;15906;52.046;4.724;2024-02-26T02:06:53;5.90;99.90
27540;DHT22;15906;52.046;4.724;2024-02-26T02:09:19;6.00;99.90
27540;DHT22;15906;52.046;4.724;2024-02-26T02:11:45;5.90;99.90
27540;DHT22;15906;52.046;4.724;2024-02-26T02:14:11;6.00;99.90
27540;DHT22;15906;52.046;4.724;2024-02-26T02:16:37;5.90;99.90
27540;DHT22;15906;52.046;4.724;2024-02-26T02:19:02;6.00;99.90
27540;DHT22;15906;52.046;4.724;2024-02-26T02:21:28;5.90;99.90
27540;DHT22;15906;52.046;4.724;2024-02-26T02:23:54;6.00;99.90
27540;DHT22;15906;52.046;4.724;2024-02-26T02:26:20;6.00;99.90
27540;DHT22;15906;52.046;4.724;2024-02-26T02:28:46;6.10;99.90
27540;DHT22;15906;52.046;4.724;2024-02-26T02:31:12;6.10;99.90
27540;DHT22;15906;52.046;4.724;2024-02-26T02:33:38;6.00;99.90
27540;DHT22;15906;52.046;4.724;2024-02-26T02:36:04;6.00;99.90
27540;DHT22;15906;52.046;4.724;2024-02-26T02:38:30;5.90;99.90
27540;DHT22;15906;52.046;4.724;2024-02-26T02:40:57;6.00;99.90
27540;DHT22;15906;52.046;4.724;2024-02-26T02:43:22;5.90;99.90
27540;DHT22;15906;52.046;4.724;2024-02-26T02:45:48;6.00;99.90
27540;DHT22;15906;52.046;4.724;2024-02-26T02:48:13;5.90;99.90
27540;DHT22;15906;52.046;4.724;2024-02-26T02:50:39;5.90;99.90
27540;DHT22;15906;52.046;4.724;2024-02-26T02:53:04;6.00;99.90
27540;DHT22;15906;52.046;4.724;2024-02-26T02:55:30;5.90;99.90
27540;DHT22;15906;52.046;4.724;2024-02-26T02:57:56;5.90;99.90
27540;DHT22;15906;52.046;4.724;2024-02-26T03:00:21;5.90;99.90
27540;DHT22;15906;52.046;4.724;2024-02-26T03:02:50;5.90;99.90
27540;DHT22;15906;52.046;4.724;2024-02-26T03:05:15;5.80;99.90
27540;DHT22;15906;52.046;4.724;2024-02-26T03:07:41;5.90;99.90
27540;DHT22;15906;52.046;4.724;2024-02-26T03:10:07;5.90;99.90
27540;DHT22;15906;52.046;4.724;2024-02-26T03:12:34;5.80;99.90
27540;DHT22;15906;52.046;4.724;2024-02-26T03:15:00;5.80;99.90
27540;DHT22;15906;52.046;4.724;2024-02-26T03:17:29;5.90;99.90
27540;DHT22;15906;52.046;4.724;2024-02-26T03:19:55;5.80;99.90
27540;DHT22;15906;52.046;4.724;2024-02-26T03:22:21;5.80;99.90
27540;DHT22;15906;52.046;4.724;2024-02-26T03:24:47;5.80;99.90
27540;DHT22;15906;52.046;4.724;2024-02-26T03:27:12;5.90;99.90
27540;DHT22;15906;52.046;4.724;2024-02-26T03:29:38;5.80;99.90
27540;DHT22;15906;52.046;4.724;2024-02-26T03:32:04;5.90;99.90
27540;DHT22;15906;52.046;4.724;2024-02-26T03:34:30;5.90;99.90
27540;DHT22;15906;52.046;4.724;2024-02-26T03:37:04;5.90;99.90
27540;DHT22;15906;52.046;4.724;2024-02-26T03:39:29;5.80;99.90
27540;DHT22;15906;52.046;4.724;2024-02-26T03:41:55;5.80;99.90
27540;DHT22;15906;52.046;4.724;2024-02-26T03:44:21;5.80;99.90
27540;DHT22;15906;52.046;4.724;2024-02-26T03:46:46;5.80;99.90
27540;DHT22;15906;52.046;4.724;2024-02-26T03:49:12;5.80;99.90
27540;DHT22;15906;52.046;4.724;2024-02-26T03:51:38;5.80;99.90
27540;DHT22;15906;52.046;4.724;2024-02-26T03:54:04;5.80;99.90
27540;DHT22;15906;52.046;4.724;2024-02-26T03:56:29;5.80;99.90
27540;DHT22;15906;52.046;4.724;2024-02-26T03:58:55;5.80;99.90
27540;DHT22;15906;52.046;4.724;2024-02-26T04:01:20;5.80;99.90
27540;DHT22;15906;52.046;4.724;2024-02-26T04:03:46;5.70;99.90
27540;DHT22;15906;52.046;4.724;2024-02-26T04:06:12;5.80;99.90
27540;DHT22;15906;52.046;4.724;2024-02-26T04:08:41;5.80;99.90
27540;DHT22;15906;52.046;4.724;2024-02-26T04:11:06;5.70;99.90
27540;DHT22;15906;52.046;4.724;2024-02-26T04:13:33;5.70;99.90
27540;DHT22;15906;52.046;4.724;2024-02-26T04:15:59;5.80;99.90
27540;DHT22;15906;52.046;4.724;2024-02-26T04:18:26;5.70;99.90
27540;DHT22;15906;52.046;4.724;2024-02-26T04:20:52;5.70;99.90
27540;DHT22;15906;52.046;4.724;2024-02-26T04:23:18;5.70;99.90
27540;DHT22;15906;52.046;4.724;2024-02-26T04:25:43;5.70;99.90
27540;DHT22;15906;52.046;4.724;2024-02-26T04:28:09;5.70;99.90
27540;DHT22;15906;52.046;4.724;2024-02-26T04:30:34;5.70;99.90
27540;DHT22;15906;52.046;4.724;2024-02-26T04:33:00;5.70;99.90
27540;DHT22;15906;52.046;4.724;2024-02-26T04:35:25;5.70;99.90
27540;DHT22;15906;52.046;4.724;2024-02-26T04:37:51;5.70;99.90
27540;DHT22;15906;52.046;4.724;2024-02-26T04:40:16;5.60;99.90
27540;DHT22;15906;52.046;4.724;2024-02-26T04:42:42;5.70;99.90
27540;DHT22;15906;52.046;4.724;2024-02-26T04:45:08;5.70;99.90
27540;DHT22;15906;52.046;4.724;2024-02-26T04:47:34;5.60;99.90
27540;DHT22;15906;52.046;4.724;2024-02-26T04:49:59;5.60;99.90
27540;DHT22;15906;52.046;4.724;2024-02-26T04:52:25;5.70;99.90
27540;DHT22;15906;52.046;4.724;2024-02-26T04:54:51;5.70;99.90
27540;DHT22;15906;52.046;4.724;2024-02-26T04:57:16;5.70;99.90
27540;DHT22;15906;52.046;4.724;2024-02-26T04:59:44;5.70;99.90
27540;DHT22;15906;52.046;4.724;2024-02-26T05:02:10;5.70;99.90
27540;DHT22;15906;52.046;4.724;2024-02-26T05:04:36;5.70;99.90
27540;DHT22;15906;52.046;4.724;2024-02-26T05:07:01;5.70;99.90
27540;DHT22;15906;52.046;4.724;2024-02-26T05:09:27;5.70;99.90
27540;DHT22;15906;52.046;4.724;2024-02-26T05:11:52;5.70;99.90
27540;DHT22;15906;52.046;4.724;2024-02-26T05:14:18;5.70;99.90
27540;DHT22;15906;52.046;4.724;2024-02-26T05:16:43;5.70;99.90
27540;DHT22;15906;52.046;4.724;2024-02-26T05:19:09;5.70;99.90
27540;DHT22;15906;52.046;4.724;2024-02-26T05:21:34;5.70;99.90
27540;DHT22;15906;52.046;4.724;2024-02-26T05:24:00;5.60;99.90
27540;DHT22;15906;52.046;4.724;2024-02-26T05:26:25;5.70;99.90
27540;DHT22;15906;52.046;4.724;2024-02-26T05:28:52;5.70;99.90
27540;DHT22;15906;52.046;4.724;2024-02-26T05:31:17;5.70;99.90
27540;DHT22;15906;52.046;4.724;2024-02-26T05:33:44;5.50;99.90
27540;DHT22;15906;52.046;4.724;2024-02-26T05:36:09;5.60;99.90
27540;DHT22;15906;52.046;4.724;2024-02-26T05:38:35;5.50;99.90
27540;DHT22;15906;52.046;4.724;2024-02-26T05:41:01;5.50;99.90
27540;DHT22;15906;52.046;4.724;2024-02-26T05:43:26;5.60;99.90
27540;DHT22;15906;52.046;4.724;2024-02-26T05:45:52;5.60;99.90
27540;DHT22;15906;52.046;4.724;2024-02-26T05:48:18;5.60;99.90
27540;DHT22;15906;52.046;4.724;2024-02-26T05:50:45;5.60;99.90
27540;DHT22;15906;52.046;4.724;2024-02-26T05:53:10;5.60;99.90
27540;DHT22;15906;52.046;4.724;2024-02-26T05:55:36;5.50;99.90
27540;DHT22;15906;52.046;4.724;2024-02-26T05:58:02;5.60;99.90
27540;DHT22;15906;52.046;4.724;2024-02-26T06:00:28;5.50;99.90
27540;DHT22;15906;52.046;4.724;2024-02-26T06:02:53;5.50;99.90
27540;DHT22;15906;52.046;4.724;2024-02-26T06:05:19;5.50;99.90
27540;DHT22;15906;52.046;4.724;2024-02-26T06:07:44;5.50;99.90
27540;DHT22;15906;52.046;4.724;2024-02-26T06:10:10;5.50;99.90
27540;DHT22;15906;52.046;4.724;2024-02-26T06:12:36;5.50;99.90
27540;DHT22;15906;52.046;4.724;2024-02-26T06:15:02;5.60;99.90
27540;DHT22;15906;52.046;4.724;2024-02-26T06:17:28;5.50;99.90
27540;DHT22;15906;52.046;4.724;2024-02-26T06:19:53;5.50;99.90
27540;DHT22;15906;52.046;4.724;2024-02-26T06:22:19;5.60;99.90
27540;DHT22;15906;52.046;4.724;2024-02-26T06:24:45;5.60;99.90
27540;DHT22;15906;52.046;4.724;2024-02-26T06:27:10;5.50;99.90
27540;DHT22;15906;52.046;4.724;2024-02-26T06:29:36;5.50;99.90
27540;DHT22;15906;52.046;4.724;2024-02-26T06:32:01;5.50;99.90
27540;DHT22;15906;52.046;4.724;2024-02-26T06:34:27;5.50;99.90
27540;DHT22;15906;52.046;4.724;2024-02-26T06:36:53;5.50;99.90
27540;DHT22;15906;52.046;4.724;2024-02-26T06:39:18;5.50;99.90
27540;DHT22;15906;52.046;4.724;2024-02-26T06:41:44;5.40;99.90
27540;DHT22;15906;52.046;4.724;2024-02-26T06:44:12;5.50;99.90
27540;DHT22;15906;52.046;4.724;2024-02-26T06:46:38;5.50;99.90
27540;DHT22;15906;52.046;4.724;2024-02-26T06:49:03;5.50;99.90
27540;DHT22;15906;52.046;4.724;2024-02-26T06:51:29;5.50;99.90
27540;DHT22;15906;52.046;4.724;2024-02-26T06:53:54;5.50;99.90
27540;DHT22;15906;52.046;4.724;2024-02-26T06:56:20;5.50;99.90
27540;DHT22;15906;52.046;4.724;2024-02-26T06:58:45;5.50;99.90
27540;DHT22;15906;52.046;4.724;2024-02-26T07:01:12;5.50;99.90
27540;DHT22;15906;52.046;4.724;2024-02-26T07:03:40;5.50;99.90
27540;DHT22;15906;52.046;4.724;2024-02-26T07:06:06;5.60;99.90
27540;DHT22;15906;52.046;4.724;2024-02-26T07:08:32;5.50;99.90
27540;DHT22;15906;52.046;4.724;2024-02-26T07:10:57;5.50;99.90
27540;DHT22;15906;52.046;4.724;2024-02-26T07:13:23;5.50;99.90
27540;DHT22;15906;52.046;4.724;2024-02-26T07:15:49;5.50;99.90
27540;DHT22;15906;52.046;4.724;2024-02-26T07:18:14;5.50;99.90
27540;DHT22;15906;52.046;4.724;2024-02-26T07:20:40;5.50;99.90
27540;DHT22;15906;52.046;4.724;2024-02-26T07:23:05;5.50;99.90
27540;DHT22;15906;52.046;4.724;2024-02-26T07:25:32;5.50;99.90
27540;DHT22;15906;52.046;4.724;2024-02-26T07:27:57;5.50;99.90
27540;DHT22;15906;52.046;4.724;2024-02-26T07:30:23;5.50;99.90
27540;DHT22;15906;52.046;4.724;2024-02-26T07:32:50;5.40;99.90
27540;DHT22;15906;52.046;4.724;2024-02-26T07:35:15;5.40;99.90
27540;DHT22;15906;52.046;4.724;2024-02-26T07:37:42;5.40;99.90
27540;DHT22;15906;52.046;4.724;2024-02-26T07:40:08;5.50;99.90
27540;DHT22;15906;52.046;4.724;2024-02-26T07:42:34;5.40;99.90
27540;DHT22;15906;52.046;4.724;2024-02-26T07:45:00;5.40;99.90
27540;DHT22;15906;52.046;4.724;2024-02-26T07:47:25;5.50;99.90
27540;DHT22;15906;52.046;4.724;2024-02-26T07:49:51;5.50;99.90
27540;DHT22;15906;52.046;4.724;2024-02-26T07:52:16;5.40;99.90
27540;DHT22;15906;52.046;4.724;2024-02-26T07:54:42;5.40;99.90
27540;DHT22;15906;52.046;4.724;2024-02-26T07:57:07;5.40;99.90
27540;DHT22;15906;52.046;4.724;2024-02-26T07:59:33;5.40;99.90
27540;DHT22;15906;52.046;4.724;2024-02-26T08:01:58;5.40;99.90
27540;DHT22;15906;52.046;4.724;2024-02-26T08:04:24;5.50;99.90
27540;DHT22;15906;52.046;4.724;2024-02-26T08:06:51;5.50;99.90
27540;DHT22;15906;52.046;4.724;2024-02-26T08:09:17;5.40;99.90
27540;DHT22;15906;52.046;4.724;2024-02-26T08:11:43;5.40;99.90
27540;DHT22;15906;52.046;4.724;2024-02-26T08:14:08;5.40;99.90
27540;DHT22;15906;52.046;4.724;2024-02-26T08:16:34;5.50;99.90
27540;DHT22;15906;52.046;4.724;2024-02-26T08:18:59;5.50;99.90
27540;DHT22;15906;52.046;4.724;2024-02-26T08:21:25;5.40;99.90
27540;DHT22;15906;52.046;4.724;2024-02-26T08:23:50;5.50;99.90
27540;DHT22;15906;52.046;4.724;2024-02-26T08:26:16;5.40;99.90
27540;DHT22;15906;52.046;4.724;2024-02-26T08:28:41;5.40;99.90
27540;DHT22;15906;52.046;4.724;2024-02-26T08:31:07;5.40;99.90
27540;DHT22;15906;52.046;4.724;2024-02-26T08:33:33;5.40;99.90
27540;DHT22;15906;52.046;4.724;2024-02-26T08:36:04;5.40;99.90
27540;DHT22;15906;52.046;4.724;2024-02-26T08:38:30;5.40;99.90
27540;DHT22;15906;52.046;4.724;2024-02-26T08:40:55;5.40;99.90
27540;DHT22;15906;52.046;4.724;2024-02-26T08:43:21;5.40;99.90
27540;DHT22;15906;52.046;4.724;2024-02-26T08:45:46;5.40;99.90
27540;DHT22;15906;52.046;4.724;2024-02-26T08:48:12;5.40;99.90
27540;DHT22;15906;52.046;4.724;2024-02-26T08:50:37;5.40;99.90
27540;DHT22;15906;52.046;4.724;2024-02-26T08:53:03;5.50;99.90
27540;DHT22;15906;52.046;4.724;2024-02-26T08:55:29;5.50;99.90
27540;DHT22;15906;52.046;4.724;2024-02-26T08:57:55;5.40;99.90
27540;DHT22;15906;52.046;4.724;2024-02-26T09:00:20;5.50;99.90
27540;DHT22;15906;52.046;4.724;2024-02-26T09:02:47;5.50;99.90
27540;DHT22;15906;52.046;4.724;2024-02-26T09:05:13;5.60;99.90
27540;DHT22;15906;52.046;4.724;2024-02-26T09:07:38;5.60;99.90
27540;DHT22;15906;52.046;4.724;2024-02-26T09:10:05;5.70;99.90
27540;DHT22;15906;52.046;4.724;2024-02-26T09:12:31;5.60;99.90
27540;DHT22;15906;52.046;4.724;2024-02-26T09:14:57;5.60;99.90
27540;DHT22;15906;52.046;4.724;2024-02-26T09:17:23;5.60;99.90
27540;DHT22;15906;52.046;4.724;2024-02-26T09:19:48;5.50;99.90
27540;DHT22;15906;52.046;4.724;2024-02-26T09:22:14;5.50;99.90
27540;DHT22;15906;52.046;4.724;2024-02-26T09:24:40;5.60;99.90
27540;DHT22;15906;52.046;4.724;2024-02-26T09:27:05;5.60;99.90
27540;DHT22;15906;52.046;4.724;2024-02-26T09:29:31;5.60;99.90
27540;DHT22;15906;52.046;4.724;2024-02-26T09:31:57;5.60;99.90
27540;DHT22;15906;52.046;4.724;2024-02-26T09:34:22;5.60;99.90
27540;DHT22;15906;52.046;4.724;2024-02-26T09:36:48;5.70;99.90
27540;DHT22;15906;52.046;4.724;2024-02-26T09:39:13;5.70;99.90
27540;DHT22;15906;52.046;4.724;2024-02-26T09:41:40;5.70;99.90
27540;DHT22;15906;52.046;4.724;2024-02-26T09:44:06;5.70;99.90
27540;DHT22;15906;52.046;4.724;2024-02-26T09:46:33;5.80;99.90
27540;DHT22;15906;52.046;4.724;2024-02-26T09:48:58;5.80;99.90
27540;DHT22;15906;52.046;4.724;2024-02-26T09:51:24;5.80;99.90
27540;DHT22;15906;52.046;4.724;2024-02-26T09:53:52;5.80;99.90
27540;DHT22;15906;52.046;4.724;2024-02-26T09:56:18;5.80;99.90
27540;DHT22;15906;52.046;4.724;2024-02-26T09:58:44;5.90;99.90
27540;DHT22;15906;52.046;4.724;2024-02-26T10:01:17;5.90;99.90
27540;DHT22;15906;52.046;4.724;2024-02-26T10:03:44;5.90;99.90
27540;DHT22;15906;52.046;4.724;2024-02-26T10:06:10;5.90;99.90
27540;DHT22;15906;52.046;4.724;2024-02-26T10:08:36;5.90;99.90
27540;DHT22;15906;52.046;4.724;2024-02-26T10:11:04;5.80;99.90
27540;DHT22;15906;52.046;4.724;2024-02-26T10:13:30;5.80;99.90
27540;DHT22;15906;52.046;4.724;2024-02-26T10:15:55;5.80;99.90
27540;DHT22;15906;52.046;4.724;2024-02-26T10:18:23;5.80;99.90
27540;DHT22;15906;52.046;4.724;2024-02-26T10:21:02;5.80;99.90
27540;DHT22;15906;52.046;4.724;2024-02-26T10:23:27;5.80;99.90
27540;DHT22;15906;52.046;4.724;2024-02-26T10:25:56;5.80;99.90
27540;DHT22;15906;52.046;4.724;2024-02-26T10:28:22;5.80;99.90
27540;DHT22;15906;52.046;4.724;2024-02-26T10:30:47;5.80;99.90
27540;DHT22;15906;52.046;4.724;2024-02-26T10:33:13;5.90;99.90
27540;DHT22;15906;52.046;4.724;2024-02-26T10:35:40;5.90;99.90
27540;DHT22;15906;52.046;4.724;2024-02-26T10:38:07;5.90;99.90
27540;DHT22;15906;52.046;4.724;2024-02-26T10:40:32;5.90;99.90
27540;DHT22;15906;52.046;4.724;2024-02-26T10:42:58;5.80;99.90
27540;DHT22;15906;52.046;4.724;2024-02-26T10:45:24;5.80;99.90
27540;DHT22;15906;52.046;4.724;2024-02-26T10:47:50;5.80;99.90
27540;DHT22;15906;52.046;4.724;2024-02-26T10:50:16;5.90;99.90
27540;DHT22;15906;52.046;4.724;2024-02-26T10:52:42;5.90;99.90
27540;DHT22;15906;52.046;4.724;2024-02-26T10:55:15;5.90;99.90
27540;DHT22;15906;52.046;4.724;2024-02-26T10:57:45;6.00;99.90
27540;DHT22;15906;52.046;4.724;2024-02-26T11:00:14;5.90;99.90
27540;DHT22;15906;52.046;4.724;2024-02-26T11:02:41;5.90;99.90
27540;DHT22;15906;52.046;4.724;2024-02-26T11:05:07;6.00;99.90
27540;DHT22;15906;52.046;4.724;2024-02-26T11:07:36;6.00;99.90
27540;DHT22;15906;52.046;4.724;2024-02-26T11:10:03;6.00;99.90
27540;DHT22;15906;52.046;4.724;2024-02-26T11:12:31;6.00;99.90
27540;DHT22;15906;52.046;4.724;2024-02-26T11:14:57;6.00;99.90
27540;DHT22;15906;52.046;4.724;2024-02-26T11:17:26;6.00;99.90
27540;DHT22;15906;52.046;4.724;2024-02-26T11:19:55;6.00;99.90
27540;DHT22;15906;52.046;4.724;2024-02-26T11:22:21;6.00;99.90
27540;DHT22;15906;52.046;4.724;2024-02-26T11:24:52;6.00;99.90
27540;DHT22;15906;52.046;4.724;2024-02-26T11:27:19;6.00;99.90
27540;DHT22;15906;52.046;4.724;2024-02-26T11:29:52;6.00;99.90
27540;DHT22;15906;52.046;4.724;2024-02-26T11:32:18;6.00;99.90
27540;DHT22;15906;52.046;4.724;2024-02-26T11:34:44;6.00;99.90
27540;DHT22;15906;52.046;4.724;2024-02-26T11:37:19;6.00;99.90
27540;DHT22;15906;52.046;4.724;2024-02-26T11:39:45;6.00;99.90
27540;DHT22;15906;52.046;4.724;2024-02-26T11:42:14;6.00;99.90
27540;DHT22;15906;52.046;4.724;2024-02-26T11:44:40;6.00;99.90
27540;DHT22;15906;52.046;4.724;2024-02-26T11:47:20;6.00;99.90
27540;DHT22;15906;52.046;4.724;2024-02-26T11:49:46;6.00;99.90
27540;DHT22;15906;52.046;4.724;2024-02-26T11:52:13;6.00;99.90
27540;DHT22;15906;52.046;4.724;2024-02-26T11:54:49;6.00;99.90
27540;DHT22;15906;52.046;4.724;2024-02-26T11:59:55;6.00;99.90
27540;DHT22;15906;52.046;4.724;2024-02-26T12:05:17;6.00;99.90
27540;DHT22;15906;52.046;4.724;2024-02-26T12:07:51;6.10;99.90
27540;DHT22;15906;52.046;4.724;2024-02-26T12:10:22;6.10;99.90
27540;DHT22;15906;52.046;4.724;2024-02-26T12:12:59;6.10;99.90
27540;DHT22;15906;52.046;4.724;2024-02-26T12:15:33;6.10;99.90
27540;DHT22;15906;52.046;4.724;2024-02-26T12:18:03;6.10;99.90
27540;DHT22;15906;52.046;4.724;2024-02-26T12:20:29;6.20;99.90
27540;DHT22;15906;52.046;4.724;2024-02-26T12:22:54;6.20;99.90
27540;DHT22;15906;52.046;4.724;2024-02-26T12:25:26;6.20;99.90
27540;DHT22;15906;52.046;4.724;2024-02-26T12:27:55;6.20;99.90
27540;DHT22;15906;52.046;4.724;2024-02-26T12:30:21;6.20;99.90
27540;DHT22;15906;52.046;4.724;2024-02-26T12:32:48;6.30;99.90
27540;DHT22;15906;52.046;4.724;2024-02-26T12:35:15;6.30;99.90
27540;DHT22;15906;52.046;4.724;2024-02-26T12:37:41;6.40;99.90
27540;DHT22;15906;52.046;4.724;2024-02-26T12:40:09;6.40;99.90
27540;DHT22;15906;52.046;4.724;2024-02-26T12:42:35;6.40;99.90
27540;DHT22;15906;52.046;4.724;2024-02-26T12:45:09;6.40;99.90
27540;DHT22;15906;52.046;4.724;2024-02-26T12:47:42;6.40;99.90
27540;DHT22;15906;52.046;4.724;2024-02-26T12:50:09;6.40;99.90
27540;DHT22;15906;52.046;4.724;2024-02-26T12:52:38;6.40;99.90
27540;DHT22;15906;52.046;4.724;2024-02-26T12:55:05;6.40;99.90
27540;DHT22;15906;52.046;4.724;2024-02-26T12:57:37;6.40;99.90
27540;DHT22;15906;52.046;4.724;2024-02-26T13:00:05;6.50;99.90
27540;DHT22;15906;52.046;4.724;2024-02-26T13:02:32;6.60;99.90
27540;DHT22;15906;52.046;4.724;2024-02-26T13:04:59;6.60;99.90
27540;DHT22;15906;52.046;4.724;2024-02-26T13:07:27;6.60;99.90
27540;DHT22;15906;52.046;4.724;2024-02-26T13:09:52;6.60;99.90
27540;DHT22;15906;52.046;4.724;2024-02-26T13:12:18;6.60;99.90
27540;DHT22;15906;52.046;4.724;2024-02-26T13:14:44;6.60;99.90
27540;DHT22;15906;52.046;4.724;2024-02-26T13:17:10;6.70;99.90
27540;DHT22;15906;52.046;4.724;2024-02-26T13:19:35;6.80;99.90
27540;DHT22;15906;52.046;4.724;2024-02-26T13:22:05;6.80;99.90
27540;DHT22;15906;52.046;4.724;2024-02-26T13:24:32;6.80;99.90
27540;DHT22;15906;52.046;4.724;2024-02-26T13:26:58;6.80;99.90
27540;DHT22;15906;52.046;4.724;2024-02-26T13:29:23;6.80;99.90
27540;DHT22;15906;52.046;4.724;2024-02-26T13:31:58;6.80;99.90
27540;DHT22;15906;52.046;4.724;2024-02-26T13:34:28;6.90;99.90
27540;DHT22;15906;52.046;4.724;2024-02-26T13:36:54;6.90;99.90
27540;DHT22;15906;52.046;4.724;2024-02-26T13:39:27;6.90;99.90
27540;DHT22;15906;52.046;4.724;2024-02-26T13:41:53;6.90;99.90
27540;DHT22;15906;52.046;4.724;2024-02-26T13:44:20;6.90;99.90
27540;DHT22;15906;52.046;4.724;2024-02-26T13:46:46;7.00;99.90
27540;DHT22;15906;52.046;4.724;2024-02-26T13:49:12;6.90;99.90
27540;DHT22;15906;52.046;4.724;2024-02-26T13:51:39;6.90;99.90
27540;DHT22;15906;52.046;4.724;2024-02-26T13:54:04;7.00;99.90
27540;DHT22;15906;52.046;4.724;2024-02-26T13:56:31;7.00;99.90
27540;DHT22;15906;52.046;4.724;2024-02-26T13:58:57;6.90;99.90
27540;DHT22;15906;52.046;4.724;2024-02-26T14:01:22;7.00;99.90
27540;DHT22;15906;52.046;4.724;2024-02-26T14:03:48;7.10;99.90
27540;DHT22;15906;52.046;4.724;2024-02-26T14:06:14;7.20;99.90
27540;DHT22;15906;52.046;4.724;2024-02-26T14:08:39;7.20;99.90
27540;DHT22;15906;52.046;4.724;2024-02-26T14:11:05;7.20;99.90
27540;DHT22;15906;52.046;4.724;2024-02-26T14:13:31;7.20;99.90
27540;DHT22;15906;52.046;4.724;2024-02-26T14:15:56;7.20;99.90
27540;DHT22;15906;52.046;4.724;2024-02-26T14:18:22;7.20;99.90
27540;DHT22;15906;52.046;4.724;2024-02-26T14:20:48;7.20;99.90
27540;DHT22;15906;52.046;4.724;2024-02-26T14:23:13;7.20;99.90
27540;DHT22;15906;52.046;4.724;2024-02-26T14:25:39;7.20;99.90
27540;DHT22;15906;52.046;4.724;2024-02-26T14:28:05;7.10;99.90
27540;DHT22;15906;52.046;4.724;2024-02-26T14:30:31;7.20;99.90
27540;DHT22;15906;52.046;4.724;2024-02-26T14:32:56;7.30;99.90
27540;DHT22;15906;52.046;4.724;2024-02-26T14:35:22;7.20;99.90
27540;DHT22;15906;52.046;4.724;2024-02-26T14:37:47;7.10;99.90
27540;DHT22;15906;52.046;4.724;2024-02-26T14:40:14;7.10;99.90
27540;DHT22;15906;52.046;4.724;2024-02-26T14:42:40;7.10;99.90
27540;DHT22;15906;52.046;4.724;2024-02-26T14:45:07;7.10;99.90
27540;DHT22;15906;52.046;4.724;2024-02-26T14:47:35;7.20;99.90
27540;DHT22;15906;52.046;4.724;2024-02-26T14:50:01;7.20;99.90
27540;DHT22;15906;52.046;4.724;2024-02-26T14:52:26;7.20;99.90
27540;DHT22;15906;52.046;4.724;2024-02-26T14:54:52;7.10;99.90
27540;DHT22;15906;52.046;4.724;2024-02-26T14:57:18;7.10;99.90
27540;DHT22;15906;52.046;4.724;2024-02-26T14:59:43;7.10;99.90
27540;DHT22;15906;52.046;4.724;2024-02-26T15:02:10;7.10;99.90
27540;DHT22;15906;52.046;4.724;2024-02-26T15:04:36;7.00;99.90
27540;DHT22;15906;52.046;4.724;2024-02-26T15:07:02;7.00;99.90
27540;DHT22;15906;52.046;4.724;2024-02-26T15:09:28;6.90;99.90
27540;DHT22;15906;52.046;4.724;2024-02-26T15:11:53;6.90;99.90
27540;DHT22;15906;52.046;4.724;2024-02-26T15:14:19;6.90;99.90
27540;DHT22;15906;52.046;4.724;2024-02-26T15:16:44;6.90;99.90
27540;DHT22;15906;52.046;4.724;2024-02-26T15:19:10;6.90;99.90
27540;DHT22;15906;52.046;4.724;2024-02-26T15:21:45;6.80;99.90
27540;DHT22;15906;52.046;4.724;2024-02-26T15:24:11;6.80;99.90
27540;DHT22;15906;52.046;4.724;2024-02-26T15:26:37;6.80;99.90
27540;DHT22;15906;52.046;4.724;2024-02-26T15:29:03;6.80;99.90
27540;DHT22;15906;52.046;4.724;2024-02-26T15:31:29;6.90;99.90
27540;DHT22;15906;52.046;4.724;2024-02-26T15:33:54;6.80;99.90
27540;DHT22;15906;52.046;4.724;2024-02-26T15:36:20;6.80;99.90
27540;DHT22;15906;52.046;4.724;2024-02-26T15:38:45;6.70;99.90
27540;DHT22;15906;52.046;4.724;2024-02-26T15:41:12;6.70;99.90
27540;DHT22;15906;52.046;4.724;2024-02-26T15:43:38;6.70;99.90